sensor_id;sensor_type;location;lat;lon;timestamp;pressure;altitude;pressure_sealevel;temperature
80962;BMP280;70424;55.154;14.722;2024-03-17T00:01:00;101277.53;;;5.04
80962;BMP280;70424;55.154;14.722;2024-03-17T00:03:27;101277.66;;;4.98
80962;BMP280;70424;55.154;14.722;2024-03-17T00:06:02;101284.41;;;5.05
80962;BMP280;70424;55.154;14.722;2024-03-17T00:08:27;101291.81;;;5.04
80962;BMP280;70424;55.154;14.722;2024-03-17T00:10:54;101286.19;;;5.02
80962;BMP280;70424;55.154;14.722;2024-03-17T00:13:23;101258.84;;;4.93
80962;BMP280;70424;55.154;14.722;2024-03-17T00:15:49;101276.94;;;4.98
80962;BMP280;70424;55.154;14.722;2024-03-17T00:18:15;101273.31;;;4.95
80962;BMP280;70424;55.154;14.722;2024-03-17T00:20:41;101273.13;;;4.93
80962;BMP280;70424;55.154;14.722;2024-03-17T00:23:07;101292.81;;;4.94
80962;BMP280;70424;55.154;14.722;2024-03-17T00:25:34;101271.72;;;4.79
80962;BMP280;70424;55.154;14.722;2024-03-17T00:28:01;101294.97;;;4.95
80962;BMP280;70424;55.154;14.722;2024-03-17T00:30:27;101259.44;;;4.78
80962;BMP280;70424;55.154;14.722;2024-03-17T00:32:52;101307.59;;;4.93
80962;BMP280;70424;55.154;14.722;2024-03-17T00:35:18;101300.72;;;4.92
80962;BMP280;70424;55.154;14.722;2024-03-17T00:37:47;101294.41;;;4.89
80962;BMP280;70424;55.154;14.722;2024-03-17T00:40:12;101301.63;;;4.94
80962;BMP280;70424;55.154;14.722;2024-03-17T00:42:38;101315.00;;;4.92
80962;BMP280;70424;55.154;14.722;2024-03-17T00:45:04;101304.28;;;4.87
80962;BMP280;70424;55.154;14.722;2024-03-17T00:47:32;101308.06;;;4.84
80962;BMP280;70424;55.154;14.722;2024-03-17T00:49:57;101315.47;;;4.83
80962;BMP280;70424;55.154;14.722;2024-03-17T00:52:23;101305.84;;;4.82
80962;BMP280;70424;55.154;14.722;2024-03-17T00:54:48;101313.47;;;4.84
80962;BMP280;70424;55.154;14.722;2024-03-17T00:57:14;101306.72;;;4.77
80962;BMP280;70424;55.154;14.722;2024-03-17T00:59:41;101325.44;;;4.88
80962;BMP280;70424;55.154;14.722;2024-03-17T01:02:08;101314.94;;;4.85
80962;BMP280;70424;55.154;14.722;2024-03-17T01:04:33;101302.94;;;4.80
80962;BMP280;70424;55.154;14.722;2024-03-17T01:06:59;101304.75;;;4.77
80962;BMP280;70424;55.154;14.722;2024-03-17T01:09:25;101328.66;;;4.87
80962;BMP280;70424;55.154;14.722;2024-03-17T01:11:51;101322.84;;;4.83
80962;BMP280;70424;55.154;14.722;2024-03-17T01:14:16;101327.03;;;4.84
80962;BMP280;70424;55.154;14.722;2024-03-17T01:16:41;101334.00;;;4.79
80962;BMP280;70424;55.154;14.722;2024-03-17T01:19:07;101341.59;;;4.81
80962;BMP280;70424;55.154;14.722;2024-03-17T01:21:32;101306.97;;;4.66
80962;BMP280;70424;55.154;14.722;2024-03-17T01:23:58;101344.72;;;4.85
80962;BMP280;70424;55.154;14.722;2024-03-17T01:26:23;101291.81;;;4.49
80962;BMP280;70424;55.154;14.722;2024-03-17T01:28:49;101339.22;;;4.77
80962;BMP280;70424;55.154;14.722;2024-03-17T01:31:15;101357.72;;;4.86
80962;BMP280;70424;55.154;14.722;2024-03-17T01:33:40;101364.22;;;4.83
80962;BMP280;70424;55.154;14.722;2024-03-17T01:36:06;101377.03;;;4.83
80962;BMP280;70424;55.154;14.722;2024-03-17T01:38:32;101365.72;;;4.71
80962;BMP280;70424;55.154;14.722;2024-03-17T01:40:58;101376.81;;;4.81
80962;BMP280;70424;55.154;14.722;2024-03-17T01:43:24;101384.00;;;4.78
80962;BMP280;70424;55.154;14.722;2024-03-17T01:45:50;101371.91;;;4.79
80962;BMP280;70424;55.154;14.722;2024-03-17T01:48:16;101375.41;;;4.66
80962;BMP280;70424;55.154;14.722;2024-03-17T01:50:44;101392.66;;;4.76
80962;BMP280;70424;55.154;14.722;2024-03-17T01:53:12;101388.09;;;4.71
80962;BMP280;70424;55.154;14.722;2024-03-17T01:55:38;101402.56;;;4.74
80962;BMP280;70424;55.154;14.722;2024-03-17T01:58:05;101398.22;;;4.71
80962;BMP280;70424;55.154;14.722;2024-03-17T02:00:36;101417.38;;;4.73
80962;BMP280;70424;55.154;14.722;2024-03-17T02:03:08;101406.88;;;4.69
80962;BMP280;70424;55.154;14.722;2024-03-17T02:05:36;101424.03;;;4.72
80962;BMP280;70424;55.154;14.722;2024-03-17T02:08:10;101427.28;;;4.70
80962;BMP280;70424;55.154;14.722;2024-03-17T02:10:37;101429.25;;;4.70
80962;BMP280;70424;55.154;14.722;2024-03-17T02:13:03;101438.59;;;4.69
80962;BMP280;70424;55.154;14.722;2024-03-17T02:15:34;101441.13;;;4.67
80962;BMP280;70424;55.154;14.722;2024-03-17T02:18:00;101447.16;;;4.60
80962;BMP280;70424;55.154;14.722;2024-03-17T02:20:25;101456.22;;;4.62
80962;BMP280;70424;55.154;14.722;2024-03-17T02:23:11;101429.50;;;4.32
80962;BMP280;70424;55.154;14.722;2024-03-17T02:25:37;101451.66;;;4.44
80962;BMP280;70424;55.154;14.722;2024-03-17T02:28:03;101466.56;;;4.51
80962;BMP280;70424;55.154;14.722;2024-03-17T02:30:28;101459.47;;;4.47
80962;BMP280;70424;55.154;14.722;2024-03-17T02:32:54;101472.28;;;4.47
80962;BMP280;70424;55.154;14.722;2024-03-17T02:35:26;101477.47;;;4.45
80962;BMP280;70424;55.154;14.722;2024-03-17T02:37:51;101485.38;;;4.43
80962;BMP280;70424;55.154;14.722;2024-03-17T02:40:17;101482.25;;;4.39
80962;BMP280;70424;55.154;14.722;2024-03-17T02:42:44;101490.50;;;4.33
80962;BMP280;70424;55.154;14.722;2024-03-17T02:45:10;101493.81;;;4.26
80962;BMP280;70424;55.154;14.722;2024-03-17T02:47:37;101508.50;;;4.31
80962;BMP280;70424;55.154;14.722;2024-03-17T02:50:03;101502.75;;;4.21
80962;BMP280;70424;55.154;14.722;2024-03-17T02:52:30;101485.84;;;4.02
80962;BMP280;70424;55.154;14.722;2024-03-17T02:54:56;101518.16;;;4.26
80962;BMP280;70424;55.154;14.722;2024-03-17T02:57:22;101516.78;;;4.19
80962;BMP280;70424;55.154;14.722;2024-03-17T02:59:50;101537.41;;;4.23
80962;BMP280;70424;55.154;14.722;2024-03-17T03:02:16;101541.88;;;4.20
80962;BMP280;70424;55.154;14.722;2024-03-17T03:04:41;101542.91;;;4.17
80962;BMP280;70424;55.154;14.722;2024-03-17T03:07:07;101543.09;;;4.06
80962;BMP280;70424;55.154;14.722;2024-03-17T03:09:32;101561.25;;;4.11
80962;BMP280;70424;55.154;14.722;2024-03-17T03:11:58;101546.97;;;4.10
80962;BMP280;70424;55.154;14.722;2024-03-17T03:14:30;101557.66;;;4.03
80962;BMP280;70424;55.154;14.722;2024-03-17T03:16:57;101565.03;;;4.02
80962;BMP280;70424;55.154;14.722;2024-03-17T03:19:22;101569.72;;;4.02
80962;BMP280;70424;55.154;14.722;2024-03-17T03:21:48;101572.31;;;3.94
80962;BMP280;70424;55.154;14.722;2024-03-17T03:24:16;101563.53;;;3.88
80962;BMP280;70424;55.154;14.722;2024-03-17T03:26:42;101578.63;;;3.97
80962;BMP280;70424;55.154;14.722;2024-03-17T03:29:09;101597.28;;;4.00
80962;BMP280;70424;55.154;14.722;2024-03-17T03:31:36;101599.25;;;4.00
80962;BMP280;70424;55.154;14.722;2024-03-17T03:34:02;101594.16;;;3.96
80962;BMP280;70424;55.154;14.722;2024-03-17T03:36:28;101607.91;;;3.98
80962;BMP280;70424;55.154;14.722;2024-03-17T03:38:53;101593.56;;;3.84
80962;BMP280;70424;55.154;14.722;2024-03-17T03:41:19;101598.91;;;3.90
80962;BMP280;70424;55.154;14.722;2024-03-17T03:43:45;101611.72;;;3.89
80962;BMP280;70424;55.154;14.722;2024-03-17T03:46:13;101608.56;;;3.85
80962;BMP280;70424;55.154;14.722;2024-03-17T03:48:39;101600.28;;;3.78
80962;BMP280;70424;55.154;14.722;2024-03-17T03:51:08;101614.19;;;3.87
80962;BMP280;70424;55.154;14.722;2024-03-17T03:53:34;101610.75;;;3.87
80962;BMP280;70424;55.154;14.722;2024-03-17T03:56:03;101616.97;;;3.82
80962;BMP280;70424;55.154;14.722;2024-03-17T03:58:32;101621.13;;;3.83
80962;BMP280;70424;55.154;14.722;2024-03-17T04:00:57;101607.34;;;3.68
80962;BMP280;70424;55.154;14.722;2024-03-17T04:03:23;101622.91;;;3.80
80962;BMP280;70424;55.154;14.722;2024-03-17T04:05:48;101640.78;;;3.83
80962;BMP280;70424;55.154;14.722;2024-03-17T04:08:14;101649.63;;;3.84
80962;BMP280;70424;55.154;14.722;2024-03-17T04:10:39;101661.47;;;3.81
80962;BMP280;70424;55.154;14.722;2024-03-17T04:13:05;101665.19;;;3.78
80962;BMP280;70424;55.154;14.722;2024-03-17T04:15:31;101664.59;;;3.72
80962;BMP280;70424;55.154;14.722;2024-03-17T04:17:56;101671.72;;;3.69
80962;BMP280;70424;55.154;14.722;2024-03-17T04:20:21;101661.47;;;3.62
80962;BMP280;70424;55.154;14.722;2024-03-17T04:22:47;101676.91;;;3.67
80962;BMP280;70424;55.154;14.722;2024-03-17T04:25:13;101682.25;;;3.73
80962;BMP280;70424;55.154;14.722;2024-03-17T04:27:39;101680.63;;;3.64
80962;BMP280;70424;55.154;14.722;2024-03-17T04:30:06;101681.06;;;3.68
80962;BMP280;70424;55.154;14.722;2024-03-17T04:32:32;101686.03;;;3.64
80962;BMP280;70424;55.154;14.722;2024-03-17T04:34:59;101693.66;;;3.66
80962;BMP280;70424;55.154;14.722;2024-03-17T04:37:24;101696.34;;;3.66
80962;BMP280;70424;55.154;14.722;2024-03-17T04:39:50;101693.91;;;3.62
80962;BMP280;70424;55.154;14.722;2024-03-17T04:42:17;101688.34;;;3.54
80962;BMP280;70424;55.154;14.722;2024-03-17T04:44:44;101696.84;;;3.64
80962;BMP280;70424;55.154;14.722;2024-03-17T04:47:09;101698.59;;;3.61
80962;BMP280;70424;55.154;14.722;2024-03-17T04:49:39;101702.53;;;3.60
80962;BMP280;70424;55.154;14.722;2024-03-17T04:52:05;101718.03;;;3.60
80962;BMP280;70424;55.154;14.722;2024-03-17T04:54:31;101718.53;;;3.58
80962;BMP280;70424;55.154;14.722;2024-03-17T04:56:57;101717.22;;;3.46
80962;BMP280;70424;55.154;14.722;2024-03-17T04:59:22;101734.38;;;3.49
80962;BMP280;70424;55.154;14.722;2024-03-17T05:01:48;101705.31;;;3.30
80962;BMP280;70424;55.154;14.722;2024-03-17T05:04:14;101724.63;;;3.40
80962;BMP280;70424;55.154;14.722;2024-03-17T05:06:39;101729.31;;;3.40
80962;BMP280;70424;55.154;14.722;2024-03-17T05:09:07;101737.63;;;3.42
80962;BMP280;70424;55.154;14.722;2024-03-17T05:11:34;101730.81;;;3.35
80962;BMP280;70424;55.154;14.722;2024-03-17T05:14:01;101730.09;;;3.34
80962;BMP280;70424;55.154;14.722;2024-03-17T05:16:26;101741.88;;;3.31
80962;BMP280;70424;55.154;14.722;2024-03-17T05:18:55;101719.00;;;3.14
80962;BMP280;70424;55.154;14.722;2024-03-17T05:21:20;101751.75;;;3.29
80962;BMP280;70424;55.154;14.722;2024-03-17T05:23:47;101764.75;;;3.30
80962;BMP280;70424;55.154;14.722;2024-03-17T05:26:13;101745.00;;;3.17
80962;BMP280;70424;55.154;14.722;2024-03-17T05:28:39;101763.28;;;3.29
80962;BMP280;70424;55.154;14.722;2024-03-17T05:31:05;101771.41;;;3.29
80962;BMP280;70424;55.154;14.722;2024-03-17T05:33:31;101771.19;;;3.27
80962;BMP280;70424;55.154;14.722;2024-03-17T05:35:58;101774.19;;;3.18
80962;BMP280;70424;55.154;14.722;2024-03-17T05:38:25;101796.72;;;3.26
80962;BMP280;70424;55.154;14.722;2024-03-17T05:41:02;101792.78;;;3.27
80962;BMP280;70424;55.154;14.722;2024-03-17T05:43:29;101802.59;;;3.30
80962;BMP280;70424;55.154;14.722;2024-03-17T05:45:59;101806.25;;;3.33
80962;BMP280;70424;55.154;14.722;2024-03-17T05:48:26;101803.88;;;3.24
80962;BMP280;70424;55.154;14.722;2024-03-17T05:50:51;101806.06;;;3.25
80962;BMP280;70424;55.154;14.722;2024-03-17T05:53:18;101823.22;;;3.33
80962;BMP280;70424;55.154;14.722;2024-03-17T05:55:44;101828.84;;;3.36
80962;BMP280;70424;55.154;14.722;2024-03-17T05:58:10;101817.69;;;3.20
80962;BMP280;70424;55.154;14.722;2024-03-17T06:00:36;101841.41;;;3.33
80962;BMP280;70424;55.154;14.722;2024-03-17T06:03:03;101844.53;;;3.37
80962;BMP280;70424;55.154;14.722;2024-03-17T06:05:33;101843.09;;;3.36
80962;BMP280;70424;55.154;14.722;2024-03-17T06:08:00;101854.63;;;3.37
80962;BMP280;70424;55.154;14.722;2024-03-17T06:10:25;101848.53;;;3.30
80962;BMP280;70424;55.154;14.722;2024-03-17T06:12:52;101845.44;;;3.21
80962;BMP280;70424;55.154;14.722;2024-03-17T06:15:17;101853.22;;;3.24
80962;BMP280;70424;55.154;14.722;2024-03-17T06:17:43;101863.50;;;3.31
80962;BMP280;70424;55.154;14.722;2024-03-17T06:20:09;101864.00;;;3.30
80962;BMP280;70424;55.154;14.722;2024-03-17T06:22:39;101875.84;;;3.27
80962;BMP280;70424;55.154;14.722;2024-03-17T06:25:05;101876.84;;;3.24
80962;BMP280;70424;55.154;14.722;2024-03-17T06:27:32;101874.66;;;3.22
80962;BMP280;70424;55.154;14.722;2024-03-17T06:29:59;101888.88;;;3.23
80962;BMP280;70424;55.154;14.722;2024-03-17T06:32:26;101882.06;;;3.16
80962;BMP280;70424;55.154;14.722;2024-03-17T06:34:51;101880.56;;;3.21
80962;BMP280;70424;55.154;14.722;2024-03-17T06:37:17;101890.38;;;3.18
80962;BMP280;70424;55.154;14.722;2024-03-17T06:39:45;101905.59;;;3.21
80962;BMP280;70424;55.154;14.722;2024-03-17T06:42:10;101891.38;;;3.15
80962;BMP280;70424;55.154;14.722;2024-03-17T06:44:37;101904.38;;;3.22
80962;BMP280;70424;55.154;14.722;2024-03-17T06:47:02;101911.25;;;3.23
80962;BMP280;70424;55.154;14.722;2024-03-17T06:49:28;101906.13;;;3.14
80962;BMP280;70424;55.154;14.722;2024-03-17T06:51:53;101921.03;;;3.26
80962;BMP280;70424;55.154;14.722;2024-03-17T06:54:19;101911.25;;;3.18
80962;BMP280;70424;55.154;14.722;2024-03-17T06:56:45;101931.13;;;3.26
80962;BMP280;70424;55.154;14.722;2024-03-17T06:59:10;101917.09;;;3.27
80962;BMP280;70424;55.154;14.722;2024-03-17T07:01:36;101937.25;;;3.26
80962;BMP280;70424;55.154;14.722;2024-03-17T07:04:01;101928.88;;;3.24
80962;BMP280;70424;55.154;14.722;2024-03-17T07:06:27;101928.19;;;3.24
80962;BMP280;70424;55.154;14.722;2024-03-17T07:08:52;101928.63;;;3.28
80962;BMP280;70424;55.154;14.722;2024-03-17T07:11:17;101939.69;;;3.24
80962;BMP280;70424;55.154;14.722;2024-03-17T07:13:43;101929.19;;;3.21
80962;BMP280;70424;55.154;14.722;2024-03-17T07:16:09;101934.28;;;3.24
80962;BMP280;70424;55.154;14.722;2024-03-17T07:18:35;101942.34;;;3.36
80962;BMP280;70424;55.154;14.722;2024-03-17T07:21:02;101931.78;;;3.32
80962;BMP280;70424;55.154;14.722;2024-03-17T07:23:29;101947.25;;;3.37
80962;BMP280;70424;55.154;14.722;2024-03-17T07:25:57;101926.72;;;3.23
80962;BMP280;70424;55.154;14.722;2024-03-17T07:28:23;101955.34;;;3.43
80962;BMP280;70424;55.154;14.722;2024-03-17T07:30:56;101950.66;;;3.43
80962;BMP280;70424;55.154;14.722;2024-03-17T07:33:22;101959.25;;;3.47
80962;BMP280;70424;55.154;14.722;2024-03-17T07:35:52;101950.22;;;3.33
80962;BMP280;70424;55.154;14.722;2024-03-17T07:38:19;101958.78;;;3.43
80962;BMP280;70424;55.154;14.722;2024-03-17T07:40:45;101974.69;;;3.52
80962;BMP280;70424;55.154;14.722;2024-03-17T07:43:20;101979.34;;;3.52
80962;BMP280;70424;55.154;14.722;2024-03-17T07:45:45;101982.28;;;3.54
80962;BMP280;70424;55.154;14.722;2024-03-17T07:48:11;101981.56;;;3.53
80962;BMP280;70424;55.154;14.722;2024-03-17T07:50:36;101984.72;;;3.57
80962;BMP280;70424;55.154;14.722;2024-03-17T07:53:02;101990.63;;;3.56
80962;BMP280;70424;55.154;14.722;2024-03-17T07:55:28;101978.44;;;3.44
80962;BMP280;70424;55.154;14.722;2024-03-17T07:57:56;102003.63;;;3.57
80962;BMP280;70424;55.154;14.722;2024-03-17T08:00:21;102010.06;;;3.54
80962;BMP280;70424;55.154;14.722;2024-03-17T08:02:47;101996.13;;;3.45
80962;BMP280;70424;55.154;14.722;2024-03-17T08:05:13;102023.31;;;3.58
80962;BMP280;70424;55.154;14.722;2024-03-17T08:07:40;102014.47;;;3.57
80962;BMP280;70424;55.154;14.722;2024-03-17T08:10:07;102016.72;;;3.53
80962;BMP280;70424;55.154;14.722;2024-03-17T08:12:33;102029.47;;;3.58
80962;BMP280;70424;55.154;14.722;2024-03-17T08:14:58;102016.19;;;3.55
80962;BMP280;70424;55.154;14.722;2024-03-17T08:17:25;102015.25;;;3.52
80962;BMP280;70424;55.154;14.722;2024-03-17T08:19:50;102027.00;;;3.60
80962;BMP280;70424;55.154;14.722;2024-03-17T08:22:16;102031.16;;;3.61
80962;BMP280;70424;55.154;14.722;2024-03-17T08:24:41;102026.50;;;3.62
80962;BMP280;70424;55.154;14.722;2024-03-17T08:27:07;102029.69;;;3.66
80962;BMP280;70424;55.154;14.722;2024-03-17T08:29:32;102029.91;;;3.68
80962;BMP280;70424;55.154;14.722;2024-03-17T08:31:58;102030.59;;;3.74
80962;BMP280;70424;55.154;14.722;2024-03-17T08:34:24;102037.94;;;3.79
80962;BMP280;70424;55.154;14.722;2024-03-17T08:36:49;102033.00;;;3.78
80962;BMP280;70424;55.154;14.722;2024-03-17T08:39:15;102047.50;;;3.86
80962;BMP280;70424;55.154;14.722;2024-03-17T08:41:40;102054.09;;;3.90
80962;BMP280;70424;55.154;14.722;2024-03-17T08:44:06;102044.47;;;3.95
80962;BMP280;70424;55.154;14.722;2024-03-17T08:46:32;102054.28;;;3.98
80962;BMP280;70424;55.154;14.722;2024-03-17T08:48:58;102037.41;;;3.86
80962;BMP280;70424;55.154;14.722;2024-03-17T08:51:23;102046.72;;;3.91
80962;BMP280;70424;55.154;14.722;2024-03-17T08:53:49;102065.84;;;3.99
80962;BMP280;70424;55.154;14.722;2024-03-17T08:56:14;102050.66;;;3.90
80962;BMP280;70424;55.154;14.722;2024-03-17T08:58:40;102050.16;;;3.92
80962;BMP280;70424;55.154;14.722;2024-03-17T09:01:06;102062.69;;;3.95
80962;BMP280;70424;55.154;14.722;2024-03-17T09:03:33;102072.72;;;4.00
80962;BMP280;70424;55.154;14.722;2024-03-17T09:05:59;102062.88;;;3.97
80962;BMP280;70424;55.154;14.722;2024-03-17T09:08:24;102049.66;;;3.93
80962;BMP280;70424;55.154;14.722;2024-03-17T09:10:52;102061.16;;;3.99
80962;BMP280;70424;55.154;14.722;2024-03-17T09:13:19;102063.88;;;3.99
80962;BMP280;70424;55.154;14.722;2024-03-17T09:15:59;102083.50;;;4.05
80962;BMP280;70424;55.154;14.722;2024-03-17T09:18:31;102080.81;;;4.05
80962;BMP280;70424;55.154;14.722;2024-03-17T09:21:02;102088.41;;;4.07
80962;BMP280;70424;55.154;14.722;2024-03-17T09:23:28;102085.94;;;4.09
80962;BMP280;70424;55.154;14.722;2024-03-17T09:26:00;102081.97;;;4.15
80962;BMP280;70424;55.154;14.722;2024-03-17T09:28:28;102097.19;;;4.18
80962;BMP280;70424;55.154;14.722;2024-03-17T09:30:54;102103.03;;;4.23
80962;BMP280;70424;55.154;14.722;2024-03-17T09:33:21;102093.72;;;4.24
80962;BMP280;70424;55.154;14.722;2024-03-17T09:36:01;102099.84;;;4.24
80962;BMP280;70424;55.154;14.722;2024-03-17T09:38:28;102100.59;;;4.25
80962;BMP280;70424;55.154;14.722;2024-03-17T09:40:54;102100.09;;;4.26
80962;BMP280;70424;55.154;14.722;2024-03-17T09:43:22;102104.00;;;4.31
80962;BMP280;70424;55.154;14.722;2024-03-17T09:45:49;102121.94;;;4.34
80962;BMP280;70424;55.154;14.722;2024-03-17T09:48:17;102113.56;;;4.37
80962;BMP280;70424;55.154;14.722;2024-03-17T09:50:50;102117.91;;;4.40
80962;BMP280;70424;55.154;14.722;2024-03-17T09:53:27;102113.97;;;4.41
80962;BMP280;70424;55.154;14.722;2024-03-17T09:55:56;102113.97;;;4.41
80962;BMP280;70424;55.154;14.722;2024-03-17T09:58:22;102116.47;;;4.39
80962;BMP280;70424;55.154;14.722;2024-03-17T10:00:47;102110.31;;;4.39
80962;BMP280;70424;55.154;14.722;2024-03-17T10:06:46;102117.38;;;4.47
80962;BMP280;70424;55.154;14.722;2024-03-17T10:09:16;102120.78;;;4.54
80962;BMP280;70424;55.154;14.722;2024-03-17T10:11:46;102113.16;;;4.52
80962;BMP280;70424;55.154;14.722;2024-03-17T10:14:16;102118.19;;;4.67
80962;BMP280;70424;55.154;14.722;2024-03-17T10:16:43;102127.31;;;4.69
80962;BMP280;70424;55.154;14.722;2024-03-17T10:19:16;102122.25;;;4.79
80962;BMP280;70424;55.154;14.722;2024-03-17T10:21:47;102132.53;;;4.86
80962;BMP280;70424;55.154;14.722;2024-03-17T10:24:25;102104.09;;;4.74
80962;BMP280;70424;55.154;14.722;2024-03-17T10:26:53;102133.44;;;4.94
80962;BMP280;70424;55.154;14.722;2024-03-17T10:29:28;102132.44;;;4.97
80962;BMP280;70424;55.154;14.722;2024-03-17T10:32:15;102137.13;;;4.97
80962;BMP280;70424;55.154;14.722;2024-03-17T10:34:43;102148.13;;;5.04
80962;BMP280;70424;55.154;14.722;2024-03-17T10:37:17;102132.88;;;5.01
80962;BMP280;70424;55.154;14.722;2024-03-17T10:40:00;102143.91;;;5.09
80962;BMP280;70424;55.154;14.722;2024-03-17T10:42:29;102144.31;;;5.13
80962;BMP280;70424;55.154;14.722;2024-03-17T10:44:57;102135.31;;;5.05
80962;BMP280;70424;55.154;14.722;2024-03-17T10:47:25;102157.03;;;5.24
80962;BMP280;70424;55.154;14.722;2024-03-17T10:49:52;102157.09;;;5.18
80962;BMP280;70424;55.154;14.722;2024-03-17T10:52:18;102159.53;;;5.22
80962;BMP280;70424;55.154;14.722;2024-03-17T10:54:52;102158.50;;;5.25
80962;BMP280;70424;55.154;14.722;2024-03-17T10:57:33;102149.69;;;5.19
80962;BMP280;70424;55.154;14.722;2024-03-17T11:00:04;102159.25;;;5.25
80962;BMP280;70424;55.154;14.722;2024-03-17T11:02:31;102140.38;;;5.14
80962;BMP280;70424;55.154;14.722;2024-03-17T11:05:22;102157.69;;;5.30
80962;BMP280;70424;55.154;14.722;2024-03-17T11:07:50;102147.03;;;5.13
80962;BMP280;70424;55.154;14.722;2024-03-17T11:10:22;102172.28;;;5.27
80962;BMP280;70424;55.154;14.722;2024-03-17T11:12:55;102169.44;;;5.38
80962;BMP280;70424;55.154;14.722;2024-03-17T11:17:54;102172.31;;;5.64
80962;BMP280;70424;55.154;14.722;2024-03-17T11:20:28;102171.88;;;5.79
80962;BMP280;70424;55.154;14.722;2024-03-17T11:22:58;102178.94;;;5.88
80962;BMP280;70424;55.154;14.722;2024-03-17T11:28:06;102174.22;;;6.07
80962;BMP280;70424;55.154;14.722;2024-03-17T11:39:05;102185.88;;;6.21
80962;BMP280;70424;55.154;14.722;2024-03-17T11:41:41;102170.75;;;6.26
80962;BMP280;70424;55.154;14.722;2024-03-17T11:47:00;102191.84;;;6.33
80962;BMP280;70424;55.154;14.722;2024-03-17T11:49:28;102183.13;;;6.40
80962;BMP280;70424;55.154;14.722;2024-03-17T11:51:59;102188.66;;;6.47
80962;BMP280;70424;55.154;14.722;2024-03-17T11:54:26;102196.09;;;6.60
80962;BMP280;70424;55.154;14.722;2024-03-17T11:56:56;102194.78;;;6.80
80962;BMP280;70424;55.154;14.722;2024-03-17T11:59:25;102195.34;;;6.92
80962;BMP280;70424;55.154;14.722;2024-03-17T12:01:51;102191.25;;;7.11
80962;BMP280;70424;55.154;14.722;2024-03-17T12:04:18;102190.41;;;7.30
80962;BMP280;70424;55.154;14.722;2024-03-17T12:06:49;102196.78;;;7.46
80962;BMP280;70424;55.154;14.722;2024-03-17T12:09:29;102197.16;;;7.63
80962;BMP280;70424;55.154;14.722;2024-03-17T12:12:06;102191.00;;;7.83
80962;BMP280;70424;55.154;14.722;2024-03-17T12:14:35;102190.69;;;8.08
80962;BMP280;70424;55.154;14.722;2024-03-17T12:17:03;102201.19;;;8.24
80962;BMP280;70424;55.154;14.722;2024-03-17T12:19:29;102195.69;;;8.38
80962;BMP280;70424;55.154;14.722;2024-03-17T12:21:56;102198.53;;;8.53
80962;BMP280;70424;55.154;14.722;2024-03-17T12:24:26;102207.00;;;8.70
80962;BMP280;70424;55.154;14.722;2024-03-17T12:26:54;102198.78;;;8.91
80962;BMP280;70424;55.154;14.722;2024-03-17T12:29:37;102200.31;;;9.07
80962;BMP280;70424;55.154;14.722;2024-03-17T12:32:17;102197.06;;;9.16
80962;BMP280;70424;55.154;14.722;2024-03-17T12:34:45;102202.63;;;9.32
80962;BMP280;70424;55.154;14.722;2024-03-17T12:37:18;102203.94;;;9.46
80962;BMP280;70424;55.154;14.722;2024-03-17T12:39:44;102200.31;;;9.51
80962;BMP280;70424;55.154;14.722;2024-03-17T12:42:15;102195.78;;;9.61
80962;BMP280;70424;55.154;14.722;2024-03-17T12:45:02;102194.91;;;9.74
80962;BMP280;70424;55.154;14.722;2024-03-17T12:47:30;102204.22;;;9.86
80962;BMP280;70424;55.154;14.722;2024-03-17T12:50:00;102221.16;;;10.00
80962;BMP280;70424;55.154;14.722;2024-03-17T12:52:31;102219.91;;;10.08
80962;BMP280;70424;55.154;14.722;2024-03-17T12:55:01;102219.16;;;10.15
80962;BMP280;70424;55.154;14.722;2024-03-17T12:57:47;102209.72;;;10.24
80962;BMP280;70424;55.154;14.722;2024-03-17T13:00:31;102212.06;;;10.28
80962;BMP280;70424;55.154;14.722;2024-03-17T13:02:56;102216.25;;;10.29
80962;BMP280;70424;55.154;14.722;2024-03-17T13:05:22;102198.22;;;10.26
80962;BMP280;70424;55.154;14.722;2024-03-17T13:07:49;102209.69;;;10.47
80962;BMP280;70424;55.154;14.722;2024-03-17T13:10:19;102217.72;;;10.53
80962;BMP280;70424;55.154;14.722;2024-03-17T13:12:45;102206.91;;;10.55
80962;BMP280;70424;55.154;14.722;2024-03-17T13:15:16;102224.06;;;10.70
80962;BMP280;70424;55.154;14.722;2024-03-17T13:17:44;102215.47;;;10.74
80962;BMP280;70424;55.154;14.722;2024-03-17T13:20:15;102217.84;;;10.77
80962;BMP280;70424;55.154;14.722;2024-03-17T13:22:41;102212.94;;;10.76
80962;BMP280;70424;55.154;14.722;2024-03-17T13:25:15;102219.81;;;10.92
80962;BMP280;70424;55.154;14.722;2024-03-17T13:27:45;102212.72;;;10.89
80962;BMP280;70424;55.154;14.722;2024-03-17T13:30:14;102211.81;;;10.87
80962;BMP280;70424;55.154;14.722;2024-03-17T13:32:42;102207.44;;;10.84
80962;BMP280;70424;55.154;14.722;2024-03-17T13:35:20;102217.66;;;10.83
80962;BMP280;70424;55.154;14.722;2024-03-17T13:37:47;102212.72;;;10.89
80962;BMP280;70424;55.154;14.722;2024-03-17T13:40:13;102209.28;;;10.81
80962;BMP280;70424;55.154;14.722;2024-03-17T13:42:43;102217.06;;;10.92
80962;BMP280;70424;55.154;14.722;2024-03-17T13:45:15;102219.47;;;10.88
80962;BMP280;70424;55.154;14.722;2024-03-17T13:47:45;102210.91;;;10.84
80962;BMP280;70424;55.154;14.722;2024-03-17T13:50:11;102229.09;;;10.97
80962;BMP280;70424;55.154;14.722;2024-03-17T13:52:42;102231.81;;;11.04
80962;BMP280;70424;55.154;14.722;2024-03-17T13:55:16;102218.66;;;11.03
80962;BMP280;70424;55.154;14.722;2024-03-17T13:57:44;102233.78;;;11.11
80962;BMP280;70424;55.154;14.722;2024-03-17T14:00:09;102227.97;;;11.07
80962;BMP280;70424;55.154;14.722;2024-03-17T14:02:35;102207.72;;;11.03
80962;BMP280;70424;55.154;14.722;2024-03-17T14:05:00;102215.94;;;11.10
80962;BMP280;70424;55.154;14.722;2024-03-17T14:07:27;102210.09;;;11.06
80962;BMP280;70424;55.154;14.722;2024-03-17T14:09:52;102213.75;;;11.09
80962;BMP280;70424;55.154;14.722;2024-03-17T14:12:18;102227.22;;;11.15
80962;BMP280;70424;55.154;14.722;2024-03-17T14:14:43;102217.19;;;11.17
80962;BMP280;70424;55.154;14.722;2024-03-17T14:17:09;102220.81;;;11.12